createdAt,value
2022-12-16T00:01:58.508Z,59.00
2022-12-16T00:04:26.990Z,59.00
2022-12-16T00:06:55.042Z,58.90
2022-12-16T00:09:23.102Z,58.90
2022-12-16T00:11:51.147Z,58.90
2022-12-16T00:14:21.359Z,58.90
2022-12-16T00:16:49.421Z,58.80
2022-12-16T00:19:18.744Z,58.80
2022-12-16T00:21:46.830Z,58.80
2022-12-16T00:24:15.073Z,58.80
2022-12-16T00:26:43.071Z,58.70
2022-12-16T00:29:14.168Z,58.70
2022-12-16T00:31:48.314Z,58.70
2022-12-16T00:34:16.524Z,58.80
2022-12-16T00:36:44.631Z,58.70
2022-12-16T00:39:12.745Z,58.70
2022-12-16T00:41:40.816Z,58.70
2022-12-16T00:44:08.934Z,58.60
2022-12-16T00:46:36.951Z,58.70
2022-12-16T00:49:06.544Z,58.70
2022-12-16T00:51:34.545Z,58.60
2022-12-16T00:54:02.944Z,58.60
2022-12-16T00:56:31.009Z,58.60
2022-12-16T00:58:59.067Z,58.50
2022-12-16T01:01:27.201Z,58.40
2022-12-16T01:03:57.354Z,58.50
2022-12-16T01:06:26.807Z,58.50
2022-12-16T01:08:55.023Z,58.50
2022-12-16T01:11:23.136Z,58.50
2022-12-16T01:13:51.909Z,58.50
2022-12-16T01:16:20.442Z,58.50
2022-12-16T01:18:48.496Z,58.40
2022-12-16T01:21:19.070Z,58.40
2022-12-16T01:23:50.152Z,58.40
2022-12-16T01:26:18.658Z,58.30
2022-12-16T01:28:48.448Z,58.30
2022-12-16T01:31:17.054Z,58.30
2022-12-16T01:33:45.138Z,58.30
2022-12-16T01:36:13.169Z,58.30
2022-12-16T01:38:42.986Z,58.40
2022-12-16T01:41:12.539Z,58.30
2022-12-16T01:43:41.561Z,58.30
2022-12-16T01:46:11.173Z,58.30
2022-12-16T01:48:43.025Z,58.30
2022-12-16T01:51:15.341Z,58.30
2022-12-16T01:53:52.311Z,58.30
2022-12-16T01:56:25.202Z,58.30
2022-12-16T01:58:53.225Z,58.30
2022-12-16T02:01:23.564Z,58.30
2022-12-16T02:03:51.654Z,58.20
2022-12-16T02:06:20.463Z,58.30
2022-12-16T02:08:56.710Z,58.30
2022-12-16T02:11:41.012Z,58.20
2022-12-16T02:14:32.335Z,58.20
2022-12-16T02:17:01.785Z,58.20
2022-12-16T02:20:05.564Z,58.20
2022-12-16T02:22:38.008Z,58.20
2022-12-16T02:25:30.838Z,58.20
2022-12-16T02:28:05.626Z,58.10
2022-12-16T02:31:07.294Z,58.10
2022-12-16T02:33:58.231Z,58.10
2022-12-16T02:36:30.355Z,58.20
2022-12-16T02:39:00.267Z,58.10
2022-12-16T02:41:33.788Z,58.10
2022-12-16T02:44:04.716Z,58.10
2022-12-16T02:46:34.174Z,58.10
2022-12-16T02:49:08.581Z,58.10
2022-12-16T02:51:36.854Z,58.10
2022-12-16T02:54:05.043Z,58.10
2022-12-16T02:56:41.228Z,58.10
2022-12-16T02:59:15.632Z,58.10
2022-12-16T03:01:47.760Z,58.10
2022-12-16T03:04:19.382Z,58.00
2022-12-16T03:06:49.245Z,58.10
2022-12-16T03:09:18.838Z,58.10
2022-12-16T03:11:46.930Z,58.00
2022-12-16T03:14:17.003Z,58.10
2022-12-16T03:16:45.130Z,58.00
2022-12-16T03:19:13.261Z,58.00
2022-12-16T03:21:44.936Z,58.00
2022-12-16T03:24:13.885Z,58.10
2022-12-16T03:26:44.922Z,58.10
2022-12-16T03:29:14.678Z,58.10
2022-12-16T03:31:44.640Z,58.10
2022-12-16T03:34:16.368Z,58.00
2022-12-16T03:36:46.622Z,58.00
2022-12-16T03:39:14.641Z,58.00
2022-12-16T03:41:42.811Z,58.00
2022-12-16T03:44:11.237Z,58.00
2022-12-16T03:46:39.341Z,58.00
2022-12-16T03:49:07.818Z,58.00
2022-12-16T03:51:35.814Z,58.00
2022-12-16T03:54:05.340Z,58.00
2022-12-16T03:56:33.352Z,57.90
2022-12-16T03:59:01.431Z,58.00
2022-12-16T04:01:29.555Z,58.00
2022-12-16T04:03:57.711Z,58.00
2022-12-16T04:06:27.495Z,58.00
2022-12-16T04:09:16.856Z,58.00
2022-12-16T04:12:03.902Z,58.00
2022-12-16T04:14:53.370Z,57.90
2022-12-16T04:17:39.182Z,57.90
2022-12-16T04:20:27.929Z,58.00
2022-12-16T04:23:13.393Z,58.00
2022-12-16T04:25:55.295Z,58.00
2022-12-16T04:28:24.699Z,57.90
2022-12-16T04:30:52.825Z,58.00
2022-12-16T04:33:38.080Z,58.00
2022-12-16T04:36:24.206Z,58.00
2022-12-16T04:39:12.035Z,58.00
2022-12-16T04:41:57.413Z,57.90
2022-12-16T04:44:50.312Z,58.00
2022-12-16T04:47:39.016Z,58.00
2022-12-16T04:50:25.337Z,58.00
2022-12-16T04:53:10.890Z,58.00
2022-12-16T04:56:03.837Z,57.90
2022-12-16T04:58:50.352Z,58.00
2022-12-16T05:01:39.333Z,58.00
2022-12-16T05:04:25.826Z,58.00
2022-12-16T05:07:11.375Z,57.90
2022-12-16T05:09:57.067Z,57.90
2022-12-16T05:12:42.535Z,57.90
2022-12-16T05:15:28.899Z,57.90
2022-12-16T05:18:16.154Z,57.90
2022-12-16T05:20:58.037Z,57.90
2022-12-16T05:23:43.591Z,57.90
2022-12-16T05:26:28.993Z,57.90
2022-12-16T05:29:14.806Z,57.90
2022-12-16T05:32:00.392Z,57.90
2022-12-16T05:34:50.437Z,57.90
2022-12-16T05:37:35.816Z,57.90
2022-12-16T05:40:30.006Z,57.90
2022-12-16T05:43:16.988Z,57.90
2022-12-16T05:46:02.790Z,57.90
2022-12-16T05:48:48.255Z,57.90
2022-12-16T05:51:38.350Z,57.90
2022-12-16T05:54:24.229Z,57.90
2022-12-16T05:57:09.849Z,57.90
2022-12-16T05:59:55.545Z,57.90
2022-12-16T06:02:41.295Z,57.90
2022-12-16T06:05:32.684Z,57.90
2022-12-16T06:08:22.211Z,57.90
2022-12-16T06:11:07.886Z,57.90
2022-12-16T06:13:53.148Z,57.90
2022-12-16T06:16:38.576Z,57.80
2022-12-16T06:19:25.382Z,57.80
2022-12-16T06:22:10.686Z,57.80
2022-12-16T06:24:57.318Z,57.80
2022-12-16T06:27:42.696Z,57.70
2022-12-16T06:30:29.574Z,57.70
2022-12-16T06:33:14.933Z,57.80
2022-12-16T06:36:00.272Z,57.70
2022-12-16T06:38:45.797Z,57.80
2022-12-16T06:41:35.056Z,57.70
2022-12-16T06:44:20.334Z,57.70
2022-12-16T06:47:05.797Z,57.70
2022-12-16T06:49:51.119Z,57.70
2022-12-16T06:52:36.681Z,57.60
2022-12-16T06:55:22.455Z,57.70
2022-12-16T06:58:14.651Z,57.70
2022-12-16T07:01:00.355Z,57.70
2022-12-16T07:03:46.191Z,57.60
2022-12-16T07:06:31.573Z,57.60
2022-12-16T07:09:17.279Z,57.60
2022-12-16T07:12:02.585Z,57.60
2022-12-16T07:14:49.522Z,57.50
2022-12-16T07:17:35.196Z,57.60
2022-12-16T07:20:20.566Z,57.50
2022-12-16T07:23:12.093Z,57.50
2022-12-16T07:26:02.869Z,57.50
2022-12-16T07:28:48.565Z,57.50
2022-12-16T07:31:35.671Z,57.60
2022-12-16T07:34:20.971Z,57.50
2022-12-16T07:37:06.475Z,57.50
2022-12-16T07:39:55.208Z,57.50
2022-12-16T07:42:41.249Z,57.40
2022-12-16T07:45:27.331Z,57.30
2022-12-16T07:48:14.293Z,57.40
2022-12-16T07:51:00.122Z,57.40
2022-12-16T07:53:45.566Z,57.40
2022-12-16T07:56:30.739Z,57.40
2022-12-16T07:59:16.471Z,57.40
2022-12-16T08:02:16.257Z,57.30
2022-12-16T08:05:02.997Z,57.30
2022-12-16T08:07:48.611Z,57.30
2022-12-16T08:10:33.920Z,57.30
2022-12-16T08:13:25.325Z,57.30
2022-12-16T08:16:11.701Z,57.30
2022-12-16T08:18:57.057Z,57.30
2022-12-16T08:21:43.678Z,57.30
2022-12-16T08:24:31.209Z,57.20
2022-12-16T08:27:16.566Z,57.30
2022-12-16T08:30:02.169Z,57.20
2022-12-16T08:32:48.028Z,57.20
2022-12-16T08:35:33.640Z,57.20
2022-12-16T08:38:20.351Z,57.20
2022-12-16T08:41:17.507Z,57.20
2022-12-16T08:44:03.117Z,57.30
2022-12-16T08:46:48.498Z,57.20
2022-12-16T08:49:33.797Z,57.20
2022-12-16T08:52:19.488Z,57.30
2022-12-16T08:55:06.133Z,57.30
2022-12-16T08:57:52.065Z,57.30
2022-12-16T09:00:46.866Z,57.30
2022-12-16T09:03:33.180Z,57.40
2022-12-16T09:06:18.952Z,57.40
2022-12-16T09:09:04.313Z,57.40
2022-12-16T09:11:51.003Z,57.50
2022-12-16T09:14:36.537Z,57.50
2022-12-16T09:17:23.257Z,57.50
2022-12-16T09:20:08.815Z,57.60
2022-12-16T09:22:54.504Z,57.60
2022-12-16T09:25:46.584Z,57.60
2022-12-16T09:28:33.611Z,57.70
2022-12-16T09:31:19.142Z,57.60
2022-12-16T09:34:08.711Z,57.70
2022-12-16T09:36:50.668Z,57.80
2022-12-16T09:39:36.452Z,57.80
2022-12-16T09:42:23.991Z,57.90
2022-12-16T09:45:18.956Z,57.90
2022-12-16T09:48:08.528Z,58.00
2022-12-16T09:50:55.088Z,57.90
2022-12-16T09:53:41.434Z,58.00
2022-12-16T09:56:32.500Z,58.10
2022-12-16T09:59:19.874Z,58.10
2022-12-16T10:02:06.786Z,58.20
2022-12-16T10:04:52.556Z,58.20
2022-12-16T10:07:38.920Z,58.20
2022-12-16T10:10:35.086Z,58.30
2022-12-16T10:13:24.179Z,58.30
2022-12-16T10:16:12.106Z,58.30
2022-12-16T10:19:04.912Z,58.30
2022-12-16T10:21:54.010Z,58.40
2022-12-16T10:27:49.789Z,58.50
2022-12-16T10:30:35.151Z,58.60
2022-12-16T10:33:22.868Z,58.70
2022-12-16T10:36:10.496Z,58.70
2022-12-16T10:38:57.092Z,58.80
2022-12-16T10:41:44.372Z,58.90
2022-12-16T10:44:35.255Z,58.80
2022-12-16T10:47:20.565Z,58.90
2022-12-16T10:50:06.603Z,59.00
2022-12-16T10:52:53.569Z,59.00
2022-12-16T10:55:46.515Z,59.10
2022-12-16T11:01:51.320Z,59.10
2022-12-16T11:04:55.543Z,59.20
2022-12-16T11:07:44.080Z,59.30
2022-12-16T11:10:48.271Z,59.30
2022-12-16T11:13:36.708Z,59.30
2022-12-16T11:16:29.780Z,59.40
2022-12-16T11:19:15.617Z,59.40
2022-12-16T11:22:01.183Z,59.50
2022-12-16T11:24:46.572Z,59.60
2022-12-16T11:27:35.448Z,59.60
2022-12-16T11:30:22.170Z,59.60
2022-12-16T11:33:10.850Z,59.70
2022-12-16T11:35:58.380Z,59.70
2022-12-16T11:38:46.181Z,59.70
2022-12-16T11:41:41.335Z,59.80
2022-12-16T11:44:32.279Z,59.80
2022-12-16T11:47:17.750Z,59.80
2022-12-16T11:50:03.755Z,59.80
2022-12-16T11:52:49.553Z,59.90
2022-12-16T11:58:46.859Z,60.20
2022-12-16T12:01:45.284Z,60.00
2022-12-16T12:04:31.858Z,60.20
2022-12-16T12:07:46.178Z,60.20
2022-12-16T12:11:02.939Z,60.20
2022-12-16T12:13:58.908Z,60.20
2022-12-16T12:16:57.624Z,60.30
2022-12-16T12:19:49.013Z,60.20
2022-12-16T12:22:39.941Z,60.20
2022-12-16T12:25:35.739Z,60.20
2022-12-16T12:28:24.322Z,60.30
2022-12-16T12:31:17.056Z,60.40
2022-12-16T12:34:12.828Z,60.40
2022-12-16T12:37:03.970Z,60.50
2022-12-16T12:39:51.484Z,60.50
2022-12-16T12:42:51.655Z,60.50
2022-12-16T12:45:46.173Z,60.50
2022-12-16T12:48:33.910Z,60.50
2022-12-16T12:51:23.864Z,60.60
2022-12-16T12:54:12.344Z,60.60
2022-12-16T12:57:00.368Z,60.70
2022-12-16T12:59:47.335Z,60.70
2022-12-16T13:02:34.644Z,60.80
2022-12-16T13:05:31.577Z,60.80
2022-12-16T13:08:50.302Z,60.80
2022-12-16T13:11:36.990Z,60.80
2022-12-16T13:14:24.381Z,60.80
2022-12-16T13:17:23.702Z,60.80
2022-12-16T13:20:46.653Z,61.00
2022-12-16T13:23:48.339Z,61.00
2022-12-16T13:26:34.882Z,61.10
2022-12-16T13:29:27.157Z,61.10
2022-12-16T13:32:19.279Z,61.10
2022-12-16T13:35:04.356Z,61.20
2022-12-16T13:37:49.616Z,61.20
2022-12-16T13:40:51.243Z,61.20
2022-12-16T13:44:04.587Z,61.30
2022-12-16T13:47:00.959Z,61.30
2022-12-16T13:50:05.768Z,61.30
2022-12-16T13:53:02.739Z,61.40
2022-12-16T13:55:49.291Z,61.30
2022-12-16T13:58:40.949Z,61.40
2022-12-16T14:01:36.627Z,61.40
2022-12-16T14:04:31.918Z,61.40
2022-12-16T14:07:22.830Z,61.40
2022-12-16T14:10:09.997Z,61.50
2022-12-16T14:13:09.241Z,61.50
2022-12-16T14:15:59.630Z,61.50
2022-12-16T14:18:56.358Z,61.50
2022-12-16T14:21:53.752Z,61.60
2022-12-16T14:24:42.572Z,61.60
2022-12-16T14:27:33.095Z,61.60
2022-12-16T14:30:19.094Z,61.60
2022-12-16T14:33:04.667Z,61.60
2022-12-16T14:35:50.380Z,61.70
2022-12-16T14:38:45.661Z,61.70
2022-12-16T14:41:32.208Z,61.70
2022-12-16T14:44:17.856Z,61.80
2022-12-16T14:47:22.411Z,61.80
2022-12-16T14:50:09.514Z,61.80
2022-12-16T14:52:57.226Z,61.90
2022-12-16T14:55:50.098Z,61.80
2022-12-16T14:58:44.693Z,61.90
2022-12-16T15:01:34.782Z,61.90
2022-12-16T15:04:21.939Z,61.90
2022-12-16T15:07:25.054Z,61.90
2022-12-16T15:10:13.515Z,62.00
2022-12-16T15:13:02.129Z,61.90
2022-12-16T15:15:50.224Z,61.90
2022-12-16T15:18:36.590Z,61.90
2022-12-16T15:21:22.419Z,62.00
2022-12-16T15:24:10.694Z,62.10
2022-12-16T15:26:56.349Z,62.10
2022-12-16T15:29:48.672Z,62.10
2022-12-16T15:32:50.399Z,62.10
2022-12-16T15:35:49.581Z,62.10
2022-12-16T15:38:43.698Z,62.00
2022-12-16T15:41:40.393Z,62.00
2022-12-16T15:44:34.268Z,62.00
2022-12-16T15:47:21.111Z,62.00
2022-12-16T15:50:07.165Z,62.00
2022-12-16T15:52:54.578Z,62.00
2022-12-16T15:55:45.100Z,62.10
2022-12-16T15:58:32.629Z,62.10
2022-12-16T16:01:18.020Z,62.10
2022-12-16T16:04:09.258Z,62.10
2022-12-16T16:06:55.410Z,62.20
2022-12-16T16:09:41.569Z,62.20
2022-12-16T16:12:28.692Z,62.10
2022-12-16T16:15:14.085Z,62.10
2022-12-16T16:17:59.668Z,62.10
2022-12-16T16:20:46.867Z,62.10
2022-12-16T16:23:32.480Z,62.00
2022-12-16T16:26:18.267Z,62.00
2022-12-16T16:29:03.925Z,62.00
2022-12-16T16:31:49.398Z,62.00
2022-12-16T16:34:36.997Z,62.10
2022-12-16T16:37:30.953Z,62.00
2022-12-16T16:40:16.336Z,62.00
2022-12-16T16:43:01.773Z,62.10
2022-12-16T16:45:47.443Z,62.10
2022-12-16T16:48:34.207Z,62.10
2022-12-16T16:51:20.124Z,62.10
2022-12-16T16:54:21.122Z,62.10
2022-12-16T16:57:06.327Z,62.00
2022-12-16T16:59:51.770Z,62.00
2022-12-16T17:02:41.186Z,62.00
2022-12-16T17:05:27.122Z,62.00
2022-12-16T17:08:12.974Z,62.10
2022-12-16T17:10:59.928Z,62.00
2022-12-16T17:13:45.630Z,62.00
2022-12-16T17:16:33.917Z,62.00
2022-12-16T17:19:20.721Z,62.00
2022-12-16T17:22:06.195Z,62.00
2022-12-16T17:24:54.385Z,62.10
2022-12-16T17:27:42.687Z,62.00
2022-12-16T17:30:32.872Z,62.00
2022-12-16T17:33:18.169Z,62.10
2022-12-16T17:36:04.873Z,62.00
2022-12-16T17:38:50.277Z,61.90
2022-12-16T17:41:35.949Z,61.90
2022-12-16T17:44:26.267Z,61.90
2022-12-16T17:47:12.021Z,61.90
2022-12-16T17:49:57.734Z,61.90
2022-12-16T17:52:46.642Z,61.90
2022-12-16T17:55:32.164Z,61.90
2022-12-16T17:58:17.867Z,62.00
2022-12-16T18:01:05.071Z,61.90
2022-12-16T18:04:09.471Z,61.90
2022-12-16T18:06:54.935Z,61.90
2022-12-16T18:09:40.428Z,61.90
2022-12-16T18:12:25.738Z,61.90
2022-12-16T18:15:11.262Z,62.00
2022-12-16T18:17:58.139Z,62.00
2022-12-16T18:20:44.091Z,62.00
2022-12-16T18:23:29.740Z,62.00
2022-12-16T18:26:18.986Z,62.00
2022-12-16T18:29:04.622Z,62.00
2022-12-16T18:31:50.805Z,62.00
2022-12-16T18:34:37.580Z,62.00
2022-12-16T18:37:26.686Z,62.00
2022-12-16T18:40:12.090Z,61.90
2022-12-16T18:43:04.708Z,61.90
2022-12-16T18:45:52.390Z,61.90
2022-12-16T18:48:38.285Z,62.00
2022-12-16T18:51:26.103Z,61.90
2022-12-16T18:54:11.359Z,62.00
2022-12-16T18:56:57.257Z,61.90
2022-12-16T18:59:42.706Z,61.90
2022-12-16T19:02:28.396Z,62.00
2022-12-16T19:08:23.052Z,61.90
2022-12-16T19:11:17.487Z,61.90
2022-12-16T19:14:09.002Z,62.00
2022-12-16T19:16:55.927Z,62.00
2022-12-16T19:19:41.515Z,61.90
2022-12-16T19:22:32.396Z,61.90
2022-12-16T19:25:22.415Z,61.90
2022-12-16T19:28:07.704Z,61.90
2022-12-16T19:30:53.599Z,62.00
2022-12-16T19:33:42.124Z,62.00
2022-12-16T19:36:27.618Z,62.00
2022-12-16T19:39:12.852Z,62.00
2022-12-16T19:42:08.196Z,62.00
2022-12-16T19:44:54.790Z,62.10
2022-12-16T19:47:41.559Z,62.10
2022-12-16T19:50:27.768Z,62.10
2022-12-16T19:53:13.661Z,62.10
2022-12-16T19:56:10.619Z,62.10
2022-12-16T19:58:58.035Z,62.00
2022-12-16T20:01:44.031Z,62.10
2022-12-16T20:04:29.726Z,62.00
2022-12-16T20:07:21.679Z,62.00
2022-12-16T20:10:08.653Z,62.00
2022-12-16T20:12:56.181Z,62.10
2022-12-16T20:15:43.025Z,62.20
2022-12-16T20:18:28.457Z,62.20
2022-12-16T20:21:13.885Z,62.10
2022-12-16T20:24:08.990Z,62.10
2022-12-16T20:26:55.382Z,62.20
2022-12-16T20:29:41.632Z,62.00
2022-12-16T20:32:28.829Z,62.20
